Terminal Aerodrome Forecast
Issued by NWS Quad Cities IA IL

Home | Current Version | Previous Version | Text Only | Print | Product List | Glossary Off
Versions: 1 2 3 4 5 6 7 8 9 10 11 12 13 14 15 16 17 18 19 20 21 22 23 24 25 26

000
FTUS43 KDVN 261700 AAA
TAFDBQ
TAF AMD
KDBQ 261752Z 2618/2718 10009KT 5SM BR SCT050 OVC080
      TEMPO 2618/2621 BKN006
     FM262200 06006KT 5SM -SN BR BKN025 OVC050
     FM270100 36008KT 3SM -SN BR OVC010
     FM270500 33012KT P6SM OVC010=

USA.gov is the U.S. government's official web portal to all federal, state and local government web resources and services.